Terminal Aerodrome Forecast
Issued by NWS Grand Forks, ND

Home | Current Version | Previous Version | Graphics & Text | Print | Product List | Glossary On
Versions: 1 2 3 4 5 6 7 8 9 10 11 12 13
292
FTUS43 KFGF 251720
TAFGFK
TAF
KGFK 251720Z 2518/2618 31008KT P6SM BKN040
      TEMPO 2518/2521 BKN020
     FM260600 35004KT P6SM BKN030
     FM261300 32007KT P6SM SCT090=

USA.gov is the U.S. government's official web portal to all federal, state and local government web resources and services.